Terminal Aerodrome Forecast
Issued by NWS Green Bay, WI

Home | Current Version | Previous Version | Graphics & Text | Print | Product List | Glossary On
Versions: 1 2 3 4 5 6 7 8 9 10 11 12 13 14 15 16 17 18 19 20 21 22 23 24 25 26 27 28 29 30 31 32 33 34
324
FTUS43 KGRB 291733
TAFGRB
TAF
KGRB 291733Z 2918/3018 05015G23KT P6SM BKN200
     FM292200 04016G24KT P6SM OVC120
     FM300200 04016G26KT P6SM -RA OVC060
     FM300800 04015G26KT P6SM -RA OVC025
     FM301000 04015G26KT 5SM -RA OVC013
     FM301200 04015G27KT 6SM -RA OVC006=

USA.gov is the U.S. government's official web portal to all federal, state and local government web resources and services.